This is the latest recevied weather packets stored in our database for station/object KY4JDC. If no packets are shown the sender has not sent any weather packets the latest 1 day(s).
| Time | Temp. | Humidity | Pressure | Rain* | Wind** | Luminosity | Snow |
|---|---|---|---|---|---|---|---|
| 1778039183 | 10.56° C | 96% | 1011.1 hPa | 0 mm | 0.45 m/s, 23° | 0 W/m² | - |
| 1778038880 | 10.56° C | 96% | 1010.9 hPa | 1.78 mm | 0.45 m/s, 43° | 0 W/m² | - |
| 1778038577 | 10.56° C | 96% | 1011 hPa | 3.56 mm | 0 m/s | 0 W/m² | - |
| 1778038274 | 10.56° C | 96% | 1010.7 hPa | 3.05 mm | 0 m/s | 0 W/m² | - |
| 1778037971 | 10.56° C | 96% | 1010.4 hPa | 1.27 mm | 0.45 m/s, 40° | 0 W/m² | - |
| 1778037668 | 10.56° C | 97% | 1010.5 hPa | 1.78 mm | 0.45 m/s, 48° | 0 W/m² | - |
| 1778037365 | 11.11° C | 97% | 1010.5 hPa | 1.78 mm | 1.34 m/s, 29° | 0 W/m² | - |
| 1778037062 | 11.11° C | 97% | 1010.2 hPa | 0 mm | 0 m/s | 0 W/m² | - |
| 1778036761 | 11.11° C | 97% | 1010.1 hPa | 3.05 mm | 0.89 m/s, 16° | 0 W/m² | - |
| 1778036457 | 11.11° C | 97% | 1010.2 hPa | 3.05 mm | 0.45 m/s, 118° | 0 W/m² | - |
| 1778036154 | 11.11° C | 97% | 1010.1 hPa | 0 mm | 0.89 m/s, 1° | 0 W/m² | - |
| 1778035850 | 11.67° C | 97% | 1010.1 hPa | 0 mm | 0.89 m/s, 356° | 0 W/m² | - |
| 1778035547 | 11.67° C | 97% | 1009.8 hPa | 0 mm | 0.89 m/s, 210° | 0 W/m² | - |
| 1778035244 | 11.67° C | 97% | 1009.8 hPa | 1.27 mm | 1.34 m/s, 6° | 0 W/m² | - |
| 1778034940 | 11.67° C | 97% | 1009.6 hPa | 3.05 mm | 0.89 m/s, 70° | 0 W/m² | - |
| 1778034637 | 12.22° C | 97% | 1009.9 hPa | 1.78 mm | 0.45 m/s, 18° | 0 W/m² | - |
| 1778034335 | 12.78° C | 97% | 1009.4 hPa | 3.05 mm | 0.89 m/s, 208° | 0 W/m² | - |
| 1778034032 | 12.78° C | 97% | 1009.3 hPa | 3.05 mm | 0.45 m/s, 99° | 0 W/m² | - |
| 1778033729 | 12.78° C | 97% | 1009.3 hPa | 3.05 mm | 0.45 m/s, 1° | 0 W/m² | - |
| 1778033426 | 12.78° C | 97% | 1009.1 hPa | 1.27 mm | 0 m/s | 0 W/m² | - |
| 1777990741 | 15° C | 93% | 1011.5 hPa | 6.1 mm | 0 m/s | 33 W/m² | - |
| 1777990439 | 15° C | 93% | 1011.5 hPa | 6.1 mm | 0 m/s | 33 W/m² | - |
| 1777990135 | 15° C | 92% | 1011.6 hPa | 7.11 mm | 0.45 m/s, 108° | 26 W/m² | - |
| 1777989832 | 15° C | 92% | 1012 hPa | 6.1 mm | 0.89 m/s, 129° | 24 W/m² | - |
| 1777989529 | 15° C | 91% | 1011.4 hPa | 4.83 mm | 0 m/s | 18 W/m² | - |
* Rain latest hour (hover to see other rain measurements)
** Current wind speed in m/s (hover to see current wind gust speed)